Time;durP1;ratioP1;P1;durP2;ratioP2;P2;SDS_P1;SDS_P2;PMS_P1;PMS_P2;Temp;Humidity;BMP_temperature;BMP_pressure;BME280_temperature;BME280_humidity;BME280_pressure;Samples;Min_cycle;Max_cycle;Signal;HPM_P1;HPM_P2
2022/10/29 00:01:02;;;;;;;22.80;12.77;;;16.60;99.90;;;;;;5032516;28;20499;-79
2022/10/29 00:03:29;;;;;;;18.70;11.63;;;16.60;99.90;;;;;;5029416;28;20776;-79
2022/10/29 00:06:00;;;;;;;25.70;11.50;;;16.50;99.90;;;;;;5024249;28;20446;-78
2022/10/29 00:08:28;;;;;;;26.13;12.27;;;16.50;99.90;;;;;;5025171;28;20561;-79
2022/10/29 00:11:06;;;;;;;22.33;12.00;;;16.40;99.90;;;;;;5028407;28;20540;-79
2022/10/29 00:13:33;;;;;;;22.73;13.00;;;16.40;99.90;;;;;;5024829;28;20480;-79
2022/10/29 00:16:03;;;;;;;20.97;10.77;;;16.40;99.90;;;;;;5038669;28;20447;-80
2022/10/29 00:18:30;;;;;;;22.90;10.93;;;16.40;99.90;;;;;;5031191;28;20493;-77
2022/10/29 00:21:03;;;;;;;20.40;10.80;;;16.40;99.90;;;;;;5030901;28;20462;-80
2022/10/29 00:23:30;;;;;;;27.33;12.83;;;16.50;99.90;;;;;;5024059;28;21017;-80
2022/10/29 00:25:57;;;;;;;28.57;11.97;;;16.40;99.90;;;;;;5030225;28;20560;-78
2022/10/29 00:28:24;;;;;;;22.30;12.63;;;16.50;99.90;;;;;;5028083;28;20466;-77
2022/10/29 00:30:51;;;;;;;26.00;12.33;;;16.50;99.90;;;;;;5035350;28;20544;-81
2022/10/29 00:33:20;;;;;;;23.80;11.67;;;16.50;99.90;;;;;;5027264;28;20517;-81
2022/10/29 00:35:55;;;;;;;22.90;11.17;;;16.50;99.90;;;;;;5027318;28;20448;-78
2022/10/29 00:38:23;;;;;;;22.73;10.97;;;16.40;99.90;;;;;;5028368;28;20522;-78
2022/10/29 00:40:51;;;;;;;22.70;11.47;;;16.50;99.90;;;;;;5029700;28;20530;-79
2022/10/29 00:43:20;;;;;;;17.30;11.57;;;16.50;99.90;;;;;;5036752;28;20492;-80
2022/10/29 00:45:52;;;;;;;25.57;10.50;;;16.50;99.90;;;;;;5027131;28;20936;-77
2022/10/29 00:48:22;;;;;;;21.70;10.83;;;16.50;99.90;;;;;;5026868;28;20503;-77
2022/10/29 00:50:50;;;;;;;20.90;11.03;;;16.50;99.90;;;;;;5030415;28;20446;-79
2022/10/29 00:53:21;;;;;;;23.57;10.83;;;16.60;99.90;;;;;;5022654;28;20482;-78
2022/10/29 00:55:49;;;;;;;18.77;11.20;;;16.60;99.90;;;;;;5033179;28;21028;-80
2022/10/29 00:58:16;;;;;;;21.33;10.13;;;16.70;99.90;;;;;;5026753;28;20474;-78
2022/10/29 01:00:44;;;;;;;19.60;10.23;;;16.70;99.90;;;;;;5025039;28;20527;-79
2022/10/29 01:03:11;;;;;;;24.67;10.20;;;16.60;99.90;;;;;;5030732;28;20579;-78
2022/10/29 01:05:39;;;;;;;27.30;11.50;;;16.60;99.90;;;;;;5034907;28;20467;-79
2022/10/29 01:08:07;;;;;;;25.83;10.30;;;16.60;99.90;;;;;;5030510;28;20547;-78
2022/10/29 01:10:52;;;;;;;24.30;12.37;;;16.70;99.90;;;;;;5031894;28;20475;-80
2022/10/29 01:13:32;;;;;;;22.23;11.60;;;16.70;99.90;;;;;;5011152;28;21039;-78
2022/10/29 01:16:09;;;;;;;23.47;11.43;;;16.70;99.90;;;;;;5014528;28;20436;-77
2022/10/29 01:18:41;;;;;;;24.47;10.77;;;16.70;99.90;;;;;;5006103;28;20577;-78
2022/10/29 01:21:44;;;;;;;22.03;13.53;;;16.80;99.90;;;;;;5020127;28;20460;-79
2022/10/29 01:25:00;;;;;;;15.57;9.80;;;16.80;99.90;;;;;;5009435;28;20486;-79
2022/10/29 01:27:58;;;;;;;22.40;9.70;;;16.80;99.90;;;;;;5027780;28;20764;-79
2022/10/29 01:31:05;;;;;;;21.63;9.10;;;16.70;99.90;;;;;;5017486;28;20479;-80
2022/10/29 01:33:40;;;;;;;14.33;8.23;;;16.80;99.90;;;;;;5010302;28;20482;-79
2022/10/29 01:36:15;;;;;;;21.67;10.20;;;16.80;99.90;;;;;;5008498;28;20454;-78
2022/10/29 01:38:51;;;;;;;18.90;8.60;;;16.90;99.90;;;;;;5025027;28;20525;-78
2022/10/29 01:41:24;;;;;;;19.10;10.10;;;16.90;99.90;;;;;;5006949;28;20508;-78
2022/10/29 01:43:55;;;;;;;18.83;10.50;;;16.80;99.90;;;;;;5042690;28;20502;-80
2022/10/29 01:46:28;;;;;;;20.00;10.10;;;16.90;99.90;;;;;;5032560;28;20444;-78
2022/10/29 01:48:58;;;;;;;19.80;10.30;;;16.90;99.90;;;;;;5029482;28;20470;-77
2022/10/29 01:51:28;;;;;;;21.03;10.67;;;16.90;99.90;;;;;;5027778;28;20451;-77
2022/10/29 01:53:57;;;;;;;18.23;11.20;;;16.90;99.90;;;;;;5016524;28;21008;-77
2022/10/29 01:56:23;;;;;;;24.73;9.87;;;16.90;99.90;;;;;;5032176;28;20443;-78
2022/10/29 01:58:53;;;;;;;21.30;9.40;;;17.00;99.90;;;;;;5017701;28;20475;-78
2022/10/29 02:01:36;;;;;;;17.83;9.67;;;17.00;99.90;;;;;;5018244;28;20442;-77
2022/10/29 02:04:17;;;;;;;21.27;9.67;;;17.00;99.90;;;;;;5021894;28;20515;-77
2022/10/29 02:06:59;;;;;;;22.73;8.90;;;17.00;99.90;;;;;;5015005;28;20458;-77
2022/10/29 02:09:33;;;;;;;18.43;9.80;;;16.90;99.90;;;;;;5023290;28;20463;-77
2022/10/29 02:12:08;;;;;;;21.10;9.27;;;16.80;99.90;;;;;;5018405;28;20534;-78
2022/10/29 02:14:40;;;;;;;17.03;8.90;;;16.70;99.90;;;;;;5028152;28;20561;-79
2022/10/29 02:17:09;;;;;;;19.10;9.47;;;16.60;99.90;;;;;;5028232;28;20474;-79
2022/10/29 02:19:37;;;;;;;16.70;10.10;;;16.50;99.90;;;;;;5024035;28;20473;-79
2022/10/29 02:22:05;;;;;;;19.23;9.17;;;16.40;99.90;;;;;;5040195;28;20447;-77
2022/10/29 02:24:31;;;;;;;28.10;10.40;;;16.50;99.90;;;;;;5030548;28;20471;-79
2022/10/29 02:27:00;;;;;;;14.67;9.70;;;16.40;99.90;;;;;;5033057;28;20508;-78
2022/10/29 02:29:27;;;;;;;14.30;8.63;;;16.40;99.90;;;;;;5032837;28;20486;-77
2022/10/29 02:31:54;;;;;;;21.27;9.50;;;16.50;99.90;;;;;;5023031;28;20531;-79
2022/10/29 02:34:24;;;;;;;20.20;11.33;;;16.50;99.90;;;;;;5033092;28;20521;-77
2022/10/29 02:36:51;;;;;;;26.37;10.90;;;16.40;99.90;;;;;;5027590;28;20534;-76
2022/10/29 02:39:22;;;;;;;19.40;10.37;;;16.40;99.90;;;;;;5037142;28;20558;-80
2022/10/29 02:41:49;;;;;;;27.27;10.90;;;16.40;99.90;;;;;;5026781;28;20542;-77
2022/10/29 02:44:17;;;;;;;20.40;10.43;;;16.20;99.90;;;;;;5023075;28;20467;-78
2022/10/29 02:46:44;;;;;;;27.23;11.70;;;16.20;99.90;;;;;;5017323;28;20473;-78
2022/10/29 02:49:13;;;;;;;21.60;10.97;;;16.20;99.90;;;;;;5029911;28;20547;-78
2022/10/29 02:51:51;;;;;;;24.15;12.02;;;16.00;99.90;;;;;;5037785;28;20458;-77
2022/10/29 02:54:18;;;;;;;17.13;11.13;;;16.00;99.90;;;;;;5036584;28;20284;-78
2022/10/29 02:56:45;;;;;;;23.97;14.63;;;15.90;99.90;;;;;;5025696;28;20542;-77
2022/10/29 02:59:13;;;;;;;24.45;13.68;;;15.90;99.90;;;;;;5026601;28;20476;-79
2022/10/29 03:01:40;;;;;;;14.20;11.43;;;15.90;99.90;;;;;;5044700;28;20238;-77
2022/10/29 03:04:07;;;;;;;37.60;15.20;;;15.80;99.90;;;;;;5033109;28;20550;-77
2022/10/29 03:06:34;;;;;;;21.03;13.20;;;15.70;99.90;;;;;;5035577;28;20531;-77
2022/10/29 03:09:03;;;;;;;33.87;16.80;;;15.50;99.90;;;;;;5033760;28;20565;-78
2022/10/29 03:11:30;;;;;;;31.85;15.32;;;15.50;99.90;;;;;;5023795;28;20588;-78
2022/10/29 03:13:57;;;;;;;25.70;13.25;;;15.40;99.90;;;;;;5026889;28;20224;-79
2022/10/29 03:16:24;;;;;;;22.27;12.10;;;15.40;99.90;;;;;;5022709;28;20289;-78
2022/10/29 03:18:52;;;;;;;27.87;15.73;;;15.30;99.90;;;;;;5035552;28;20518;-79
2022/10/29 03:21:19;;;;;;;31.38;13.73;;;15.20;99.90;;;;;;5036138;28;20444;-78
2022/10/29 03:23:46;;;;;;;18.77;12.70;;;15.20;99.90;;;;;;5036866;28;20226;-79
2022/10/29 03:26:15;;;;;;;22.52;14.55;;;15.20;99.90;;;;;;5032357;28;20740;-78
2022/10/29 03:28:42;;;;;;;20.15;13.35;;;15.20;99.90;;;;;;5032689;28;20242;-79
2022/10/29 03:31:09;;;;;;;27.35;11.30;;;15.20;99.90;;;;;;5033616;28;20246;-77
2022/10/29 03:33:37;;;;;;;22.70;14.60;;;15.30;99.90;;;;;;5036068;28;20287;-79
2022/10/29 03:36:06;;;;;;;21.88;11.50;;;15.20;99.90;;;;;;5026084;28;20242;-78
2022/10/29 03:38:34;;;;;;;26.65;14.73;;;15.20;99.90;;;;;;5029612;28;20229;-77
2022/10/29 03:41:07;;;;;;;19.40;14.45;;;15.10;99.90;;;;;;5045726;28;20313;-78
2022/10/29 03:43:35;;;;;;;24.67;13.82;;;15.20;99.90;;;;;;5025964;28;20194;-77
2022/10/29 03:46:02;;;;;;;28.45;15.35;;;15.00;99.90;;;;;;5035380;28;20219;-77
2022/10/29 03:48:29;;;;;;;24.83;13.25;;;15.00;99.90;;;;;;5034341;28;20234;-76
2022/10/29 03:50:57;;;;;;;31.27;16.55;;;14.90;99.90;;;;;;5032242;28;20216;-77
2022/10/29 03:53:25;;;;;;;26.45;16.05;;;14.90;99.90;;;;;;5025319;28;20289;-77
2022/10/29 03:55:52;;;;;;;27.55;17.77;;;14.80;99.90;;;;;;5023840;28;20297;-77
2022/10/29 03:58:19;;;;;;;25.40;17.52;;;14.70;99.90;;;;;;5028769;28;20308;-78
2022/10/29 04:00:55;;;;;;;34.08;16.70;;;14.80;99.90;;;;;;5027794;28;20202;-77
2022/10/29 04:03:22;;;;;;;34.35;16.90;;;14.70;99.90;;;;;;5026991;28;20241;-78
2022/10/29 04:05:49;;;;;;;37.35;18.65;;;14.70;99.90;;;;;;5032235;28;20206;-78
2022/10/29 04:08:16;;;;;;;38.97;17.52;;;14.60;99.90;;;;;;5023028;28;20259;-79
2022/10/29 04:10:45;;;;;;;31.38;17.45;;;14.60;99.90;;;;;;5019106;28;20197;-78
2022/10/29 04:13:12;;;;;;;28.85;15.77;;;14.60;99.90;;;;;;5024897;28;20663;-78
2022/10/29 04:15:40;;;;;;;21.50;15.10;;;14.50;99.90;;;;;;5025711;28;20657;-77
2022/10/29 04:18:09;;;;;;;39.03;18.40;;;14.50;99.90;;;;;;5027018;28;20768;-77
2022/10/29 04:20:37;;;;;;;33.50;20.15;;;14.50;99.90;;;;;;5046593;28;20628;-79
2022/10/29 04:23:04;;;;;;;34.33;17.92;;;14.50;99.90;;;;;;5026091;28;20260;-78
2022/10/29 04:25:32;;;;;;;33.85;18.83;;;14.40;99.90;;;;;;5026556;28;20203;-76
2022/10/29 04:27:59;;;;;;;23.63;17.00;;;14.40;99.90;;;;;;5030684;28;20296;-76
2022/10/29 04:30:26;;;;;;;22.23;15.95;;;14.30;99.90;;;;;;5032907;28;20668;-80
2022/10/29 04:32:57;;;;;;;29.17;15.50;;;14.40;99.90;;;;;;5024819;28;20634;-78
2022/10/29 04:35:26;;;;;;;27.52;17.65;;;14.40;99.90;;;;;;5022435;28;20594;-79
2022/10/29 04:37:54;;;;;;;34.55;18.75;;;14.40;99.90;;;;;;5034136;28;20242;-78
2022/10/29 04:40:23;;;;;;;32.50;18.80;;;14.50;99.90;;;;;;5032237;28;20205;-77
2022/10/29 04:42:50;;;;;;;35.97;19.50;;;14.30;99.90;;;;;;5031876;28;20227;-77
2022/10/29 04:45:19;;;;;;;34.15;19.58;;;14.30;99.90;;;;;;5034159;28;20291;-78
2022/10/29 04:47:46;;;;;;;34.28;18.75;;;14.30;99.90;;;;;;5036549;28;20318;-78
2022/10/29 04:50:15;;;;;;;33.70;17.02;;;14.20;99.90;;;;;;5036356;28;20287;-80
2022/10/29 04:52:46;;;;;;;27.25;18.10;;;14.20;99.90;;;;;;5037547;28;20227;-77
2022/10/29 04:55:18;;;;;;;23.98;13.90;;;14.30;99.90;;;;;;5038519;28;20234;-78
2022/10/29 04:57:49;;;;;;;37.50;17.80;;;14.20;99.90;;;;;;5026731;28;20308;-76
2022/10/29 05:00:16;;;;;;;40.28;18.65;;;14.30;99.90;;;;;;5046242;28;20200;-77
2022/10/29 05:02:47;;;;;;;20.37;13.80;;;14.40;99.90;;;;;;5031214;28;20280;-77
2022/10/29 05:05:16;;;;;;;19.63;13.50;;;14.60;99.90;;;;;;5022977;28;20534;-79
2022/10/29 05:07:44;;;;;;;29.65;18.17;;;14.60;99.90;;;;;;5023713;28;20301;-77
2022/10/29 05:10:12;;;;;;;27.73;17.02;;;14.60;99.90;;;;;;5022862;28;20297;-77
2022/10/29 05:12:39;;;;;;;28.23;13.20;;;14.60;99.90;;;;;;5035857;28;20715;-78
2022/10/29 05:15:11;;;;;;;33.63;17.63;;;14.60;99.90;;;;;;5039560;28;20248;-79
2022/10/29 05:17:38;;;;;;;27.50;14.82;;;14.60;99.90;;;;;;5045981;28;20310;-78
2022/10/29 05:20:09;;;;;;;20.30;13.07;;;14.60;99.90;;;;;;5036096;28;20203;-76
2022/10/29 05:22:35;;;;;;;24.42;15.65;;;14.60;99.90;;;;;;5033834;28;20670;-77
2022/10/29 05:25:13;;;;;;;32.05;16.35;;;14.70;99.90;;;;;;5034181;28;20292;-78
2022/10/29 05:27:40;;;;;;;32.47;17.65;;;14.60;99.90;;;;;;5031881;28;20227;-78
2022/10/29 05:30:09;;;;;;;27.33;14.65;;;14.50;99.90;;;;;;5033816;28;20294;-78
2022/10/29 05:32:37;;;;;;;20.02;14.57;;;14.50;99.90;;;;;;5029388;28;20287;-78
2022/10/29 05:35:05;;;;;;;20.40;13.60;;;14.40;99.90;;;;;;5023054;28;20246;-78
2022/10/29 05:37:33;;;;;;;31.30;18.23;;;14.50;99.90;;;;;;5036768;28;20200;-79
2022/10/29 05:40:00;;;;;;;31.00;18.63;;;14.40;99.90;;;;;;5035908;28;20235;-78
2022/10/29 05:42:28;;;;;;;35.92;21.08;;;14.30;99.90;;;;;;5027037;28;20240;-78
2022/10/29 05:44:55;;;;;;;33.97;21.65;;;14.10;99.90;;;;;;5026166;28;20294;-77
2022/10/29 05:47:22;;;;;;;32.13;17.95;;;14.00;99.90;;;;;;5025454;28;20659;-77
2022/10/29 05:49:53;;;;;;;30.65;19.05;;;14.10;99.90;;;;;;5027039;28;20216;-79
2022/10/29 05:52:19;;;;;;;29.52;15.95;;;14.10;99.90;;;;;;5030523;28;20639;-77
2022/10/29 05:54:49;;;;;;;23.15;15.57;;;14.10;99.90;;;;;;5033051;28;20311;-78
2022/10/29 05:57:16;;;;;;;31.40;16.20;;;14.00;99.90;;;;;;5020639;28;20211;-77
2022/10/29 05:59:44;;;;;;;36.28;22.52;;;14.10;99.90;;;;;;5032383;28;20237;-78
2022/10/29 06:02:11;;;;;;;31.30;18.58;;;14.00;99.90;;;;;;5030121;28;20265;-78
2022/10/29 06:04:38;;;;;;;31.17;17.95;;;14.10;99.90;;;;;;5027597;28;20214;-78
2022/10/29 06:07:05;;;;;;;22.85;17.33;;;14.10;99.90;;;;;;5025237;28;20291;-78
2022/10/29 06:09:32;;;;;;;29.58;18.40;;;14.10;99.90;;;;;;5020584;28;20260;-77
2022/10/29 06:12:00;;;;;;;25.63;15.43;;;14.10;99.90;;;;;;5019750;28;20292;-77
2022/10/29 06:14:27;;;;;;;29.55;17.88;;;14.10;99.90;;;;;;5023597;28;20248;-77
2022/10/29 06:16:55;;;;;;;41.35;20.10;;;14.20;99.90;;;;;;5028922;28;20208;-78
2022/10/29 06:19:22;;;;;;;26.38;16.40;;;14.10;99.90;;;;;;5038322;28;20255;-78
2022/10/29 06:21:49;;;;;;;31.75;19.65;;;14.00;99.90;;;;;;5034231;28;20209;-79
2022/10/29 06:24:16;;;;;;;25.58;14.85;;;14.10;99.90;;;;;;5026917;28;20262;-79
2022/10/29 06:26:44;;;;;;;22.33;15.98;;;14.10;99.90;;;;;;5027803;28;20207;-79
2022/10/29 06:29:11;;;;;;;23.00;14.43;;;14.00;99.90;;;;;;5022953;28;20695;-77
2022/10/29 06:31:38;;;;;;;28.75;18.17;;;14.10;99.90;;;;;;5029816;28;20211;-78
2022/10/29 06:34:06;;;;;;;27.77;18.35;;;14.10;99.90;;;;;;5030095;28;20234;-80
2022/10/29 06:36:33;;;;;;;31.65;18.08;;;14.10;99.90;;;;;;5024164;28;20323;-76
2022/10/29 06:39:00;;;;;;;24.35;14.40;;;14.10;99.90;;;;;;5018051;28;20319;-75
2022/10/29 06:41:31;;;;;;;35.15;18.52;;;14.20;99.90;;;;;;5014903;28;20204;-76
2022/10/29 06:43:57;;;;;;;20.73;13.98;;;14.20;99.90;;;;;;5017167;28;20210;-76
2022/10/29 06:46:24;;;;;;;34.10;16.80;;;14.30;99.90;;;;;;5018585;28;20220;-74
2022/10/29 06:48:51;;;;;;;30.60;18.38;;;14.30;99.90;;;;;;5021616;28;20275;-75
2022/10/29 06:51:19;;;;;;;37.63;18.10;;;14.20;99.90;;;;;;5020054;28;20296;-75
2022/10/29 06:53:47;;;;;;;26.60;17.13;;;14.10;99.90;;;;;;5018188;28;20205;-75
2022/10/29 06:56:14;;;;;;;31.02;17.08;;;14.20;99.90;;;;;;5021190;28;20223;-73
2022/10/29 06:58:41;;;;;;;29.15;15.68;;;14.10;99.90;;;;;;5027497;28;20234;-79
2022/10/29 07:01:08;;;;;;;27.25;14.85;;;14.10;99.90;;;;;;5028221;28;21060;-75
2022/10/29 07:03:35;;;;;;;22.88;15.20;;;14.40;99.90;;;;;;5026802;28;20243;-74
2022/10/29 07:06:02;;;;;;;19.47;11.90;;;14.50;99.90;;;;;;5025738;28;20258;-76
2022/10/29 07:08:32;;;;;;;19.08;11.88;;;14.60;99.90;;;;;;5041984;28;20459;-77
2022/10/29 07:11:01;;;;;;;28.38;13.25;;;14.80;99.90;;;;;;5030839;28;20259;-78
2022/10/29 07:13:28;;;;;;;17.70;11.25;;;14.80;99.90;;;;;;5030203;28;20212;-75
2022/10/29 07:15:56;;;;;;;24.00;12.70;;;14.90;99.90;;;;;;5027539;28;20231;-77
2022/10/29 07:18:23;;;;;;;20.33;12.02;;;14.90;99.90;;;;;;5030483;28;20304;-76
2022/10/29 07:20:50;;;;;;;24.95;12.48;;;15.00;99.90;;;;;;5021763;28;20566;-76
2022/10/29 07:23:17;;;;;;;24.50;12.02;;;15.00;99.90;;;;;;5025777;28;20232;-79
2022/10/29 07:25:46;;;;;;;16.02;12.98;;;15.10;99.90;;;;;;5032544;28;20200;-76
2022/10/29 07:28:16;;;;;;;26.25;14.18;;;15.20;99.90;;;;;;5031322;28;20306;-76
2022/10/29 07:30:43;;;;;;;18.23;14.20;;;15.20;99.90;;;;;;5022678;28;20579;-74
2022/10/29 07:33:10;;;;;;;12.93;9.55;;;15.30;99.90;;;;;;5026857;28;20434;-74
2022/10/29 07:35:38;;;;;;;26.27;13.20;;;15.70;99.90;;;;;;5031495;28;20752;-76
2022/10/29 07:38:08;;;;;;;15.47;10.57;;;16.10;99.90;;;;;;5023775;28;20588;-75
2022/10/29 07:40:35;;;;;;;20.70;13.73;;;16.50;99.90;;;;;;5029859;28;20523;-75
2022/10/29 07:43:03;;;;;;;19.90;11.90;;;16.80;99.90;;;;;;5028832;28;20543;-73
2022/10/29 07:45:30;;;;;;;19.57;10.60;;;17.00;99.90;;;;;;5022432;28;20793;-76
2022/10/29 07:48:01;;;;;;;17.10;12.00;;;17.20;99.90;;;;;;5029140;28;20958;-76
2022/10/29 07:50:34;;;;;;;19.13;11.03;;;17.30;99.90;;;;;;5035499;28;20442;-76
2022/10/29 07:53:02;;;;;;;13.03;10.03;;;17.70;99.90;;;;;;5023172;28;20567;-76
2022/10/29 07:55:30;;;;;;;15.07;9.67;;;18.30;99.90;;;;;;5023362;28;20598;-75
2022/10/29 07:57:57;;;;;;;15.50;10.63;;;19.20;99.90;;;;;;5015579;28;20464;-75
2022/10/29 08:00:26;;;;;;;17.67;9.77;;;19.70;99.90;;;;;;5015592;28;20806;-74
2022/10/29 08:02:54;;;;;;;23.33;11.30;;;20.10;99.90;;;;;;5019408;28;20521;-76
2022/10/29 08:05:21;;;;;;;16.83;12.73;;;20.20;99.90;;;;;;5015784;28;20448;-74
2022/10/29 08:07:49;;;;;;;16.90;9.50;;;20.30;99.90;;;;;;5026497;28;20530;-75
2022/10/29 08:10:16;;;;;;;20.37;11.50;;;20.10;99.90;;;;;;5024570;28;20453;-74
2022/10/29 08:12:49;;;;;;;16.90;8.73;;;20.50;99.90;;;;;;5022486;28;20534;-75
2022/10/29 08:15:16;;;;;;;22.17;9.97;;;21.10;99.90;;;;;;5017908;28;20491;-73
2022/10/29 08:17:45;;;;;;;18.90;10.30;;;21.70;99.90;;;;;;5019321;28;21001;-76
2022/10/29 08:20:12;;;;;;;12.20;9.13;;;22.00;99.90;;;;;;5015569;28;20479;-75
2022/10/29 08:22:39;;;;;;;14.37;10.27;;;21.50;99.90;;;;;;5022177;28;20457;-75
2022/10/29 08:25:07;;;;;;;18.70;11.87;;;21.00;99.90;;;;;;5029454;28;20442;-74
2022/10/29 08:27:34;;;;;;;21.33;10.20;;;20.30;99.90;;;;;;5015645;28;20447;-76
2022/10/29 08:30:01;;;;;;;15.67;10.57;;;19.60;99.90;;;;;;5029508;28;20534;-75
2022/10/29 08:32:28;;;;;;;13.83;10.70;;;19.30;99.90;;;;;;5015686;28;20446;-76
2022/10/29 08:34:56;;;;;;;21.80;11.60;;;19.10;99.90;;;;;;5022191;28;20528;-75
2022/10/29 08:37:23;;;;;;;14.03;10.00;;;18.80;99.90;;;;;;5016533;28;20871;-75
2022/10/29 08:39:50;;;;;;;21.37;11.13;;;18.60;99.90;;;;;;5021524;28;20479;-75
2022/10/29 08:42:29;;;;;;;15.57;10.10;;;18.40;99.90;;;;;;5020560;28;20439;-74
2022/10/29 08:45:22;;;;;;;15.23;11.53;;;18.30;99.90;;;;;;5033885;28;20872;-74
2022/10/29 08:48:04;;;;;;;15.43;10.83;;;18.10;99.90;;;;;;5027161;28;20495;-74
2022/10/29 08:50:39;;;;;;;17.80;11.27;;;17.90;99.90;;;;;;5024465;28;20439;-76
2022/10/29 08:53:19;;;;;;;12.53;11.07;;;17.90;99.90;;;;;;5021471;28;20448;-76
2022/10/29 08:55:47;;;;;;;17.43;11.17;;;17.80;99.90;;;;;;5021217;28;20911;-74
2022/10/29 08:58:30;;;;;;;21.83;13.63;;;17.70;99.90;;;;;;5026193;28;20486;-73
2022/10/29 09:00:58;;;;;;;21.47;12.57;;;17.60;99.90;;;;;;5017372;28;20491;-76
2022/10/29 09:03:28;;;;;;;19.80;12.40;;;17.60;99.90;;;;;;5025208;28;20536;-77
2022/10/29 09:06:07;;;;;;;16.30;11.60;;;17.70;99.90;;;;;;5024883;28;20536;-73
2022/10/29 09:08:44;;;;;;;20.00;11.87;;;17.60;99.90;;;;;;5017731;28;20464;-75
2022/10/29 09:11:28;;;;;;;21.53;12.17;;;17.60;99.90;;;;;;5021594;28;20944;-74
2022/10/29 09:14:07;;;;;;;15.60;9.73;;;17.90;99.90;;;;;;5020971;28;20950;-73
2022/10/29 09:16:42;;;;;;;16.40;9.90;;;18.60;99.90;;;;;;5007066;28;20582;-74
2022/10/29 09:19:23;;;;;;;20.63;11.73;;;18.90;99.90;;;;;;5004885;28;20467;-76
2022/10/29 09:22:02;;;;;;;17.23;9.47;;;18.90;99.90;;;;;;5006017;28;20441;-78
2022/10/29 09:24:36;;;;;;;19.30;10.30;;;19.10;99.90;;;;;;5011074;28;20594;-81
2022/10/29 09:27:11;;;;;;;14.87;10.90;;;19.70;99.90;;;;;;5029346;28;20791;-82
2022/10/29 09:32:25;;;;;;;18.87;11.70;;;19.70;99.90;;;;;;5036279;28;20486;-80
2022/10/29 09:34:57;;;;;;;15.47;11.53;;;19.60;99.90;;;;;;5027806;28;20867;-81
2022/10/29 09:37:35;;;;;;;21.03;13.83;;;19.60;99.90;;;;;;5027902;28;20551;-81
2022/10/29 09:40:06;;;;;;;21.80;12.40;;;19.30;99.90;;;;;;5027602;28;20444;-81
2022/10/29 09:42:38;;;;;;;21.50;13.90;;;19.30;99.90;;;;;;5038548;28;20463;-79
2022/10/29 09:45:08;;;;;;;22.00;13.03;;;19.50;99.90;;;;;;5032029;28;20455;-82
2022/10/29 09:47:46;;;;;;;22.60;12.33;;;19.40;99.90;;;;;;5031539;28;20451;-79
2022/10/29 09:50:19;;;;;;;22.43;13.83;;;19.50;99.90;;;;;;5040874;28;21019;-79
2022/10/29 09:52:49;;;;;;;22.20;14.77;;;19.40;99.90;;;;;;5024157;28;20482;-82
2022/10/29 09:55:22;;;;;;;19.33;13.03;;;19.50;99.90;;;;;;5032451;28;20451;-81
2022/10/29 09:57:49;;;;;;;20.93;12.93;;;19.70;99.90;;;;;;5045677;28;20466;-81
2022/10/29 10:00:20;;;;;;;17.77;10.93;;;19.70;99.90;;;;;;5036568;28;20455;-79
2022/10/29 10:02:53;;;;;;;24.00;14.47;;;19.70;99.90;;;;;;5043664;28;20474;-81
2022/10/29 10:05:25;;;;;;;18.53;12.30;;;19.70;99.90;;;;;;5046740;28;20448;-81
2022/10/29 10:08:08;;;;;;;18.10;12.33;;;20.20;99.90;;;;;;5051286;28;20510;-83
2022/10/29 10:10:39;;;;;;;21.07;12.93;;;20.60;99.90;;;;;;5050211;28;20497;-82
2022/10/29 10:13:06;;;;;;;17.40;12.03;;;20.90;99.90;;;;;;5054872;28;20487;-81
2022/10/29 10:15:35;;;;;;;16.90;10.90;;;20.90;99.90;;;;;;5055592;28;20465;-80
2022/10/29 10:18:04;;;;;;;19.17;11.67;;;21.00;99.90;;;;;;5050828;28;20478;-80
2022/10/29 10:20:41;;;;;;;14.70;13.07;;;21.10;99.90;;;;;;5043634;28;20447;-80
2022/10/29 10:23:38;;;;;;;29.57;13.67;;;21.30;99.90;;;;;;5029269;28;20495;-81
2022/10/29 10:26:05;;;;;;;18.53;13.00;;;21.50;99.90;;;;;;5037109;28;20534;-82
2022/10/29 10:28:34;;;;;;;21.50;14.27;;;21.30;99.90;;;;;;5046828;28;20538;-81
2022/10/29 10:31:11;;;;;;;20.03;15.13;;;21.20;99.90;;;;;;5037732;28;20477;-81
2022/10/29 10:33:48;;;;;;;19.93;13.93;;;20.80;99.90;;;;;;5046539;28;20542;-81
2022/10/29 10:36:15;;;;;;;25.13;15.93;;;20.60;99.90;;;;;;5045966;28;20482;-82
2022/10/29 10:38:46;;;;;;;18.60;14.87;;;20.60;99.90;;;;;;5039581;28;20467;-83
2022/10/29 10:41:15;;;;;;;17.70;12.37;;;20.60;99.90;;;;;;5042436;28;20522;-84
2022/10/29 10:43:45;;;;;;;18.67;14.50;;;20.80;99.90;;;;;;5043640;28;20916;-80
2022/10/29 10:46:16;;;;;;;21.13;14.20;;;21.10;99.90;;;;;;5039686;28;20462;-82
2022/10/29 10:48:43;;;;;;;16.00;12.27;;;21.30;99.90;;;;;;5031186;28;20455;-84
2022/10/29 10:51:18;;;;;;;17.77;13.10;;;21.30;99.90;;;;;;5037598;28;20511;-81
2022/10/29 10:53:47;;;;;;;19.33;13.53;;;21.20;99.90;;;;;;5039416;28;20940;-82
2022/10/29 10:56:19;;;;;;;22.70;14.00;;;21.20;99.90;;;;;;5044141;28;20494;-81
2022/10/29 10:58:52;;;;;;;17.27;10.70;;;21.30;99.90;;;;;;5047038;28;20435;-81
2022/10/29 11:01:25;;;;;;;24.70;14.40;;;21.30;99.90;;;;;;5043293;28;20435;-83
2022/10/29 11:04:01;;;;;;;15.93;13.00;;;21.60;99.90;;;;;;5044534;28;20463;-82
2022/10/29 11:06:32;;;;;;;17.93;12.80;;;21.40;99.90;;;;;;5048713;28;20438;-85
2022/10/29 11:09:07;;;;;;;20.10;13.37;;;21.30;99.90;;;;;;5057529;28;20439;-84
2022/10/29 11:11:37;;;;;;;23.87;13.70;;;21.40;99.90;;;;;;5045775;28;20443;-85
2022/10/29 11:14:12;;;;;;;20.43;13.30;;;21.40;99.90;;;;;;5051999;28;20632;-84
2022/10/29 11:16:43;;;;;;;16.57;12.47;;;21.40;99.90;;;;;;5053706;28;20454;-82
2022/10/29 11:19:19;;;;;;;19.03;12.00;;;21.40;99.90;;;;;;5059561;28;20450;-83
2022/10/29 11:21:55;;;;;;;20.80;11.20;;;21.30;99.90;;;;;;5049499;28;20528;-81
2022/10/29 11:24:32;;;;;;;18.20;13.03;;;21.40;99.90;;;;;;5043843;28;20538;-83
2022/10/29 11:27:03;;;;;;;22.60;12.20;;;21.30;99.90;;;;;;5047666;28;20472;-81
2022/10/29 11:29:40;;;;;;;14.23;10.20;;;21.30;99.90;;;;;;5047258;28;20453;-83
2022/10/29 11:32:49;;;;;;;16.67;10.40;;;21.30;99.90;;;;;;5047623;28;20481;-85
2022/10/29 11:35:36;;;;;;;18.57;11.73;;;21.20;99.90;;;;;;5047170;28;20943;-84
2022/10/29 11:38:14;;;;;;;25.37;12.90;;;21.00;99.90;;;;;;5053625;28;20473;-82
2022/10/29 11:40:54;;;;;;;23.17;16.00;;;21.20;99.90;;;;;;5048778;28;20495;-86
2022/10/29 11:43:21;;;;;;;32.10;19.60;;;20.90;99.90;;;;;;5044293;28;20554;-85
2022/10/29 11:45:59;;;;;;;24.40;16.20;;;21.00;99.90;;;;;;5047621;28;20586;-86
2022/10/29 11:48:45;;;;;;;24.57;15.83;;;20.90;99.90;;;;;;5043912;28;20492;-85
2022/10/29 11:51:20;;;;;;;20.20;14.33;;;20.90;99.90;;;;;;5050000;28;20411;-81
2022/10/29 11:53:57;;;;;;;19.17;12.60;;;20.90;99.90;;;;;;5047219;28;20467;-86
2022/10/29 11:56:41;;;;;;;23.90;13.30;;;20.70;99.90;;;;;;5054835;28;20548;-82
2022/10/29 11:59:16;;;;;;;19.20;12.87;;;20.70;99.90;;;;;;5039231;28;20450;-84
2022/10/29 12:01:52;;;;;;;18.40;13.27;;;20.80;99.90;;;;;;5046406;28;20470;-84
2022/10/29 12:04:30;;;;;;;24.67;14.83;;;20.90;99.90;;;;;;5036510;28;20794;-83
2022/10/29 12:07:07;;;;;;;23.93;14.00;;;20.90;99.90;;;;;;5053758;28;20463;-83
2022/10/29 12:10:01;;;;;;;20.90;11.70;;;20.90;99.90;;;;;;5055295;28;20458;-84
2022/10/29 12:12:35;;;;;;;23.80;12.00;;;21.00;99.90;;;;;;5057717;28;20490;-84
2022/10/29 12:15:13;;;;;;;24.43;12.93;;;21.10;99.90;;;;;;5047366;28;20457;-81
2022/10/29 12:17:46;;;;;;;16.90;12.47;;;21.10;99.90;;;;;;5049558;28;20526;-82
2022/10/29 12:20:18;;;;;;;20.30;11.80;;;21.10;99.90;;;;;;5047738;28;20434;-83
2022/10/29 12:22:51;;;;;;;19.30;10.73;;;21.20;99.90;;;;;;5058337;28;20542;-85
2022/10/29 12:25:29;;;;;;;19.90;11.97;;;21.40;99.90;;;;;;5053073;28;20466;-84
2022/10/29 12:28:08;;;;;;;17.70;12.87;;;21.50;99.90;;;;;;5058778;28;20455;-84
2022/10/29 12:30:43;;;;;;;23.33;13.27;;;21.40;99.90;;;;;;5040440;28;20474;-86
2022/10/29 12:33:18;;;;;;;22.27;13.97;;;21.40;99.90;;;;;;5051545;28;20473;-85
2022/10/29 12:35:53;;;;;;;22.07;12.67;;;21.60;99.90;;;;;;5058925;28;20470;-84
2022/10/29 12:38:30;;;;;;;21.20;12.00;;;21.70;99.90;;;;;;5058583;28;20573;-86
2022/10/29 12:41:02;;;;;;;19.93;12.67;;;21.70;99.90;;;;;;5047268;28;20459;-83
2022/10/29 12:43:34;;;;;;;20.73;12.23;;;22.00;99.90;;;;;;5042751;28;20444;-82
2022/10/29 12:46:08;;;;;;;23.80;12.10;;;22.00;99.90;;;;;;5050593;28;20455;-85
2022/10/29 12:48:43;;;;;;;13.20;10.20;;;22.00;99.90;;;;;;5055555;28;20427;-85
2022/10/29 12:51:18;;;;;;;19.03;12.60;;;22.00;99.90;;;;;;5055301;28;20430;-85